sensor_id;sensor_type;location;lat;lon;timestamp;P1;durP1;ratioP1;P2;durP2;ratioP2
35074;SDS011;21260;34.984;32.490;2023-02-28T00:01:05;13.50;;;7.13;;
35074;SDS011;21260;34.984;32.490;2023-02-28T00:03:31;15.07;;;7.00;;
35074;SDS011;21260;34.984;32.490;2023-02-28T00:06:00;12.20;;;6.73;;
35074;SDS011;21260;34.984;32.490;2023-02-28T00:08:30;13.30;;;6.83;;
35074;SDS011;21260;34.984;32.490;2023-02-28T00:11:02;19.50;;;6.23;;
35074;SDS011;21260;34.984;32.490;2023-02-28T00:13:33;16.30;;;6.07;;
35074;SDS011;21260;34.984;32.490;2023-02-28T00:16:03;16.23;;;5.90;;
35074;SDS011;21260;34.984;32.490;2023-02-28T00:18:36;19.27;;;6.23;;
35074;SDS011;21260;34.984;32.490;2023-02-28T00:21:03;18.93;;;5.93;;
35074;SDS011;21260;34.984;32.490;2023-02-28T00:23:30;17.27;;;6.43;;
35074;SDS011;21260;34.984;32.490;2023-02-28T00:25:57;16.93;;;5.77;;
35074;SDS011;21260;34.984;32.490;2023-02-28T00:28:24;18.03;;;6.60;;
35074;SDS011;21260;34.984;32.490;2023-02-28T00:30:51;10.67;;;5.77;;
35074;SDS011;21260;34.984;32.490;2023-02-28T00:33:17;18.00;;;5.57;;
35074;SDS011;21260;34.984;32.490;2023-02-28T00:35:43;12.07;;;5.60;;
35074;SDS011;21260;34.984;32.490;2023-02-28T00:38:14;9.67;;;5.67;;
35074;SDS011;21260;34.984;32.490;2023-02-28T00:40:41;15.43;;;5.97;;
35074;SDS011;21260;34.984;32.490;2023-02-28T00:43:07;13.50;;;5.90;;
35074;SDS011;21260;34.984;32.490;2023-02-28T00:45:33;14.07;;;5.50;;
35074;SDS011;21260;34.984;32.490;2023-02-28T00:48:00;13.70;;;6.00;;
35074;SDS011;21260;34.984;32.490;2023-02-28T00:50:26;13.00;;;5.90;;
35074;SDS011;21260;34.984;32.490;2023-02-28T00:52:52;15.97;;;6.03;;
35074;SDS011;21260;34.984;32.490;2023-02-28T00:55:18;13.37;;;6.10;;
35074;SDS011;21260;34.984;32.490;2023-02-28T00:57:45;13.70;;;5.60;;
35074;SDS011;21260;34.984;32.490;2023-02-28T01:00:11;15.70;;;5.43;;
35074;SDS011;21260;34.984;32.490;2023-02-28T01:02:38;16.57;;;5.57;;
35074;SDS011;21260;34.984;32.490;2023-02-28T01:05:04;12.40;;;5.27;;
35074;SDS011;21260;34.984;32.490;2023-02-28T01:07:31;13.23;;;5.57;;
35074;SDS011;21260;34.984;32.490;2023-02-28T01:09:57;12.10;;;5.00;;
35074;SDS011;21260;34.984;32.490;2023-02-28T01:12:23;13.37;;;5.30;;
35074;SDS011;21260;34.984;32.490;2023-02-28T01:14:49;12.73;;;5.63;;
35074;SDS011;21260;34.984;32.490;2023-02-28T01:17:16;12.37;;;5.10;;
35074;SDS011;21260;34.984;32.490;2023-02-28T01:19:42;13.33;;;5.10;;
35074;SDS011;21260;34.984;32.490;2023-02-28T01:22:11;18.80;;;6.40;;
35074;SDS011;21260;34.984;32.490;2023-02-28T01:24:37;10.23;;;5.77;;
35074;SDS011;21260;34.984;32.490;2023-02-28T01:27:04;16.70;;;6.20;;
35074;SDS011;21260;34.984;32.490;2023-02-28T01:29:30;12.90;;;6.10;;
35074;SDS011;21260;34.984;32.490;2023-02-28T01:31:56;13.83;;;5.87;;
35074;SDS011;21260;34.984;32.490;2023-02-28T01:34:24;15.00;;;5.20;;
35074;SDS011;21260;34.984;32.490;2023-02-28T01:36:50;14.67;;;5.40;;
35074;SDS011;21260;34.984;32.490;2023-02-28T01:39:17;13.40;;;5.33;;
35074;SDS011;21260;34.984;32.490;2023-02-28T01:41:43;14.50;;;5.77;;
35074;SDS011;21260;34.984;32.490;2023-02-28T01:47:19;11.40;;;5.23;;
35074;SDS011;21260;34.984;32.490;2023-02-28T01:49:47;14.30;;;5.23;;
35074;SDS011;21260;34.984;32.490;2023-02-28T01:52:16;16.93;;;5.93;;
35074;SDS011;21260;34.984;32.490;2023-02-28T01:54:54;16.47;;;5.83;;
35074;SDS011;21260;34.984;32.490;2023-02-28T01:57:26;14.70;;;5.73;;
35074;SDS011;21260;34.984;32.490;2023-02-28T02:00:06;15.37;;;5.97;;
35074;SDS011;21260;34.984;32.490;2023-02-28T02:02:38;12.33;;;5.77;;
35074;SDS011;21260;34.984;32.490;2023-02-28T02:05:12;13.10;;;5.67;;
35074;SDS011;21260;34.984;32.490;2023-02-28T02:07:52;11.07;;;5.30;;
35074;SDS011;21260;34.984;32.490;2023-02-28T02:10:42;18.20;;;5.43;;
35074;SDS011;21260;34.984;32.490;2023-02-28T02:30:33;14.87;;;6.40;;
35074;SDS011;21260;34.984;32.490;2023-02-28T02:36:51;16.93;;;7.67;;
35074;SDS011;21260;34.984;32.490;2023-02-28T02:39:47;18.23;;;7.90;;
35074;SDS011;21260;34.984;32.490;2023-02-28T02:42:40;22.00;;;6.77;;
35074;SDS011;21260;34.984;32.490;2023-02-28T02:45:24;17.40;;;7.37;;
35074;SDS011;21260;34.984;32.490;2023-02-28T02:48:01;20.00;;;7.63;;
35074;SDS011;21260;34.984;32.490;2023-02-28T02:50:35;13.30;;;7.13;;
35074;SDS011;21260;34.984;32.490;2023-02-28T02:53:08;18.43;;;8.13;;
35074;SDS011;21260;34.984;32.490;2023-02-28T02:55:37;17.47;;;7.27;;
35074;SDS011;21260;34.984;32.490;2023-02-28T02:58:10;16.33;;;7.33;;
35074;SDS011;21260;34.984;32.490;2023-02-28T03:00:45;14.17;;;7.23;;
35074;SDS011;21260;34.984;32.490;2023-02-28T03:03:19;16.50;;;8.40;;
35074;SDS011;21260;34.984;32.490;2023-02-28T03:05:54;22.77;;;7.60;;
35074;SDS011;21260;34.984;32.490;2023-02-28T03:08:23;16.70;;;7.10;;
35074;SDS011;21260;34.984;32.490;2023-02-28T03:10:50;19.33;;;7.80;;
35074;SDS011;21260;34.984;32.490;2023-02-28T03:13:37;21.23;;;7.50;;
35074;SDS011;21260;34.984;32.490;2023-02-28T03:25:23;22.67;;;7.90;;
35074;SDS011;21260;34.984;32.490;2023-02-28T03:28:30;19.80;;;7.40;;
35074;SDS011;21260;34.984;32.490;2023-02-28T03:34:22;16.33;;;7.83;;
35074;SDS011;21260;34.984;32.490;2023-02-28T03:37:04;16.17;;;8.00;;
35074;SDS011;21260;34.984;32.490;2023-02-28T03:39:37;22.87;;;8.50;;
35074;SDS011;21260;34.984;32.490;2023-02-28T03:42:19;15.67;;;7.80;;
35074;SDS011;21260;34.984;32.490;2023-02-28T03:44:53;19.17;;;8.27;;
35074;SDS011;21260;34.984;32.490;2023-02-28T03:47:36;21.93;;;7.93;;
35074;SDS011;21260;34.984;32.490;2023-02-28T03:50:20;19.37;;;7.97;;
35074;SDS011;21260;34.984;32.490;2023-02-28T03:53:14;15.13;;;7.60;;
35074;SDS011;21260;34.984;32.490;2023-02-28T03:55:56;23.10;;;8.07;;
35074;SDS011;21260;34.984;32.490;2023-02-28T04:01:32;16.23;;;7.57;;
35074;SDS011;21260;34.984;32.490;2023-02-28T04:04:06;22.40;;;7.67;;
35074;SDS011;21260;34.984;32.490;2023-02-28T04:06:35;17.13;;;7.03;;
35074;SDS011;21260;34.984;32.490;2023-02-28T04:09:02;17.63;;;7.60;;
35074;SDS011;21260;34.984;32.490;2023-02-28T04:11:35;12.97;;;7.07;;
35074;SDS011;21260;34.984;32.490;2023-02-28T04:14:11;17.27;;;7.33;;
35074;SDS011;21260;34.984;32.490;2023-02-28T04:16:38;17.90;;;7.63;;
35074;SDS011;21260;34.984;32.490;2023-02-28T04:19:07;23.20;;;7.40;;
35074;SDS011;21260;34.984;32.490;2023-02-28T04:21:40;20.00;;;7.77;;
35074;SDS011;21260;34.984;32.490;2023-02-28T04:24:26;14.23;;;7.30;;
35074;SDS011;21260;34.984;32.490;2023-02-28T04:26:54;13.43;;;7.07;;
35074;SDS011;21260;34.984;32.490;2023-02-28T04:29:24;19.30;;;6.80;;
35074;SDS011;21260;34.984;32.490;2023-02-28T04:31:54;16.37;;;7.57;;
35074;SDS011;21260;34.984;32.490;2023-02-28T04:34:23;15.40;;;6.73;;
35074;SDS011;21260;34.984;32.490;2023-02-28T04:36:51;28.43;;;7.70;;
35074;SDS011;21260;34.984;32.490;2023-02-28T04:39:21;22.50;;;7.57;;
35074;SDS011;21260;34.984;32.490;2023-02-28T04:41:49;19.07;;;7.73;;
35074;SDS011;21260;34.984;32.490;2023-02-28T04:44:15;17.40;;;7.63;;
35074;SDS011;21260;34.984;32.490;2023-02-28T04:46:43;15.37;;;7.47;;
35074;SDS011;21260;34.984;32.490;2023-02-28T04:49:11;21.00;;;8.37;;
35074;SDS011;21260;34.984;32.490;2023-02-28T04:51:41;20.43;;;8.50;;
35074;SDS011;21260;34.984;32.490;2023-02-28T04:54:07;20.10;;;8.50;;
35074;SDS011;21260;34.984;32.490;2023-02-28T04:56:34;22.10;;;8.40;;
35074;SDS011;21260;34.984;32.490;2023-02-28T04:59:00;16.33;;;7.33;;
35074;SDS011;21260;34.984;32.490;2023-02-28T05:01:28;21.23;;;7.43;;
35074;SDS011;21260;34.984;32.490;2023-02-28T05:03:58;14.50;;;7.90;;
35074;SDS011;21260;34.984;32.490;2023-02-28T05:06:27;20.67;;;8.13;;
35074;SDS011;21260;34.984;32.490;2023-02-28T05:08:56;17.87;;;7.73;;
35074;SDS011;21260;34.984;32.490;2023-02-28T05:14:01;15.97;;;8.10;;
35074;SDS011;21260;34.984;32.490;2023-02-28T05:16:35;13.47;;;7.67;;
35074;SDS011;21260;34.984;32.490;2023-02-28T05:19:02;14.17;;;7.50;;
35074;SDS011;21260;34.984;32.490;2023-02-28T05:21:29;19.93;;;8.10;;
35074;SDS011;21260;34.984;32.490;2023-02-28T05:24:05;16.73;;;7.87;;
35074;SDS011;21260;34.984;32.490;2023-02-28T05:26:38;17.73;;;8.30;;
35074;SDS011;21260;34.984;32.490;2023-02-28T05:29:07;25.27;;;8.73;;
35074;SDS011;21260;34.984;32.490;2023-02-28T05:31:34;15.60;;;8.23;;
35074;SDS011;21260;34.984;32.490;2023-02-28T05:34:01;16.90;;;7.83;;
35074;SDS011;21260;34.984;32.490;2023-02-28T05:36:29;18.73;;;8.30;;
35074;SDS011;21260;34.984;32.490;2023-02-28T05:38:55;23.77;;;8.80;;
35074;SDS011;21260;34.984;32.490;2023-02-28T05:41:21;18.10;;;7.87;;
35074;SDS011;21260;34.984;32.490;2023-02-28T05:43:47;22.47;;;9.17;;
35074;SDS011;21260;34.984;32.490;2023-02-28T05:46:14;18.63;;;8.80;;
35074;SDS011;21260;34.984;32.490;2023-02-28T05:48:42;13.73;;;8.40;;
35074;SDS011;21260;34.984;32.490;2023-02-28T05:51:13;20.33;;;8.97;;
35074;SDS011;21260;34.984;32.490;2023-02-28T05:53:39;17.50;;;8.60;;
35074;SDS011;21260;34.984;32.490;2023-02-28T05:56:05;17.63;;;8.60;;
35074;SDS011;21260;34.984;32.490;2023-02-28T05:58:34;17.17;;;9.33;;
35074;SDS011;21260;34.984;32.490;2023-02-28T06:01:18;24.47;;;9.10;;
35074;SDS011;21260;34.984;32.490;2023-02-28T06:03:59;18.83;;;9.17;;
35074;SDS011;21260;34.984;32.490;2023-02-28T06:06:29;17.80;;;9.07;;
35074;SDS011;21260;34.984;32.490;2023-02-28T06:08:56;23.97;;;9.83;;
35074;SDS011;21260;34.984;32.490;2023-02-28T06:11:22;16.47;;;8.80;;
35074;SDS011;21260;34.984;32.490;2023-02-28T06:13:58;18.03;;;9.70;;
35074;SDS011;21260;34.984;32.490;2023-02-28T06:16:29;21.97;;;10.77;;
35074;SDS011;21260;34.984;32.490;2023-02-28T06:18:58;20.43;;;10.33;;
35074;SDS011;21260;34.984;32.490;2023-02-28T06:21:27;20.77;;;10.47;;
35074;SDS011;21260;34.984;32.490;2023-02-28T06:23:55;18.13;;;11.10;;
35074;SDS011;21260;34.984;32.490;2023-02-28T06:26:23;19.90;;;10.70;;
35074;SDS011;21260;34.984;32.490;2023-02-28T06:28:50;21.97;;;11.03;;
35074;SDS011;21260;34.984;32.490;2023-02-28T06:31:17;19.60;;;11.37;;
35074;SDS011;21260;34.984;32.490;2023-02-28T06:33:44;18.50;;;11.47;;
35074;SDS011;21260;34.984;32.490;2023-02-28T06:36:12;18.17;;;11.47;;
35074;SDS011;21260;34.984;32.490;2023-02-28T06:38:40;24.70;;;12.20;;
35074;SDS011;21260;34.984;32.490;2023-02-28T06:41:08;34.67;;;12.97;;
35074;SDS011;21260;34.984;32.490;2023-02-28T06:43:37;20.93;;;12.77;;
35074;SDS011;21260;34.984;32.490;2023-02-28T06:46:09;26.37;;;13.80;;
35074;SDS011;21260;34.984;32.490;2023-02-28T06:48:38;20.97;;;13.40;;
35074;SDS011;21260;34.984;32.490;2023-02-28T06:51:10;18.80;;;13.97;;
35074;SDS011;21260;34.984;32.490;2023-02-28T06:53:42;20.47;;;14.07;;
35074;SDS011;21260;34.984;32.490;2023-02-28T06:56:10;23.47;;;14.80;;
35074;SDS011;21260;34.984;32.490;2023-02-28T06:58:39;24.90;;;14.20;;
35074;SDS011;21260;34.984;32.490;2023-02-28T07:01:06;22.13;;;14.53;;
35074;SDS011;21260;34.984;32.490;2023-02-28T07:03:34;25.33;;;16.03;;
35074;SDS011;21260;34.984;32.490;2023-02-28T07:06:01;24.23;;;14.40;;
35074;SDS011;21260;34.984;32.490;2023-02-28T07:08:29;19.33;;;12.97;;
35074;SDS011;21260;34.984;32.490;2023-02-28T07:10:56;24.63;;;11.20;;
35074;SDS011;21260;34.984;32.490;2023-02-28T07:13:23;24.00;;;9.90;;
35074;SDS011;21260;34.984;32.490;2023-02-28T07:16:00;22.87;;;9.60;;
35074;SDS011;21260;34.984;32.490;2023-02-28T07:18:30;28.47;;;9.37;;
35074;SDS011;21260;34.984;32.490;2023-02-28T07:20:57;21.60;;;8.83;;
35074;SDS011;21260;34.984;32.490;2023-02-28T07:23:23;27.63;;;8.93;;
35074;SDS011;21260;34.984;32.490;2023-02-28T07:25:50;23.40;;;8.80;;
35074;SDS011;21260;34.984;32.490;2023-02-28T07:28:19;19.83;;;8.07;;
35074;SDS011;21260;34.984;32.490;2023-02-28T07:30:45;25.37;;;8.60;;
35074;SDS011;21260;34.984;32.490;2023-02-28T07:33:13;19.80;;;8.70;;
35074;SDS011;21260;34.984;32.490;2023-02-28T07:35:39;25.93;;;8.60;;
35074;SDS011;21260;34.984;32.490;2023-02-28T07:38:05;16.80;;;8.57;;
35074;SDS011;21260;34.984;32.490;2023-02-28T07:40:35;24.03;;;8.60;;
35074;SDS011;21260;34.984;32.490;2023-02-28T07:43:02;17.10;;;8.83;;
35074;SDS011;21260;34.984;32.490;2023-02-28T07:45:29;21.33;;;8.97;;
35074;SDS011;21260;34.984;32.490;2023-02-28T07:47:59;27.53;;;8.53;;
35074;SDS011;21260;34.984;32.490;2023-02-28T07:50:26;23.57;;;8.50;;
35074;SDS011;21260;34.984;32.490;2023-02-28T07:52:56;22.70;;;8.50;;
35074;SDS011;21260;34.984;32.490;2023-02-28T07:55:26;21.37;;;8.77;;
35074;SDS011;21260;34.984;32.490;2023-02-28T07:57:52;26.30;;;9.23;;
35074;SDS011;21260;34.984;32.490;2023-02-28T08:00:18;19.60;;;8.67;;
35074;SDS011;21260;34.984;32.490;2023-02-28T08:02:45;20.67;;;8.40;;
35074;SDS011;21260;34.984;32.490;2023-02-28T08:05:11;23.03;;;8.90;;
35074;SDS011;21260;34.984;32.490;2023-02-28T08:07:38;17.50;;;8.37;;
35074;SDS011;21260;34.984;32.490;2023-02-28T08:10:04;19.13;;;8.47;;
35074;SDS011;21260;34.984;32.490;2023-02-28T08:12:31;17.13;;;8.00;;
35074;SDS011;21260;34.984;32.490;2023-02-28T08:14:57;21.77;;;8.13;;
35074;SDS011;21260;34.984;32.490;2023-02-28T08:17:24;17.27;;;8.20;;
35074;SDS011;21260;34.984;32.490;2023-02-28T08:19:50;18.17;;;7.90;;
35074;SDS011;21260;34.984;32.490;2023-02-28T08:22:16;23.23;;;9.40;;
35074;SDS011;21260;34.984;32.490;2023-02-28T08:24:42;25.87;;;8.13;;
35074;SDS011;21260;34.984;32.490;2023-02-28T08:27:09;18.43;;;9.03;;
35074;SDS011;21260;34.984;32.490;2023-02-28T08:29:38;20.50;;;9.73;;
35074;SDS011;21260;34.984;32.490;2023-02-28T08:32:05;24.10;;;10.50;;
35074;SDS011;21260;34.984;32.490;2023-02-28T08:34:33;17.40;;;9.47;;
35074;SDS011;21260;34.984;32.490;2023-02-28T08:36:59;19.63;;;9.10;;
35074;SDS011;21260;34.984;32.490;2023-02-28T08:39:26;20.83;;;9.37;;
35074;SDS011;21260;34.984;32.490;2023-02-28T08:41:52;23.00;;;8.43;;
35074;SDS011;21260;34.984;32.490;2023-02-28T08:44:18;21.40;;;8.30;;
35074;SDS011;21260;34.984;32.490;2023-02-28T08:46:44;20.60;;;8.47;;
35074;SDS011;21260;34.984;32.490;2023-02-28T08:49:10;19.40;;;8.00;;
35074;SDS011;21260;34.984;32.490;2023-02-28T08:51:38;20.53;;;8.60;;
35074;SDS011;21260;34.984;32.490;2023-02-28T08:54:04;21.57;;;9.20;;
35074;SDS011;21260;34.984;32.490;2023-02-28T08:56:30;18.37;;;9.50;;
35074;SDS011;21260;34.984;32.490;2023-02-28T08:58:57;20.40;;;9.13;;
35074;SDS011;21260;34.984;32.490;2023-02-28T09:01:27;23.23;;;9.20;;
35074;SDS011;21260;34.984;32.490;2023-02-28T09:03:55;27.10;;;9.50;;
35074;SDS011;21260;34.984;32.490;2023-02-28T09:06:23;23.13;;;8.90;;
35074;SDS011;21260;34.984;32.490;2023-02-28T09:08:51;16.40;;;8.73;;
35074;SDS011;21260;34.984;32.490;2023-02-28T09:11:18;26.90;;;9.20;;
35074;SDS011;21260;34.984;32.490;2023-02-28T09:13:45;24.07;;;9.20;;
35074;SDS011;21260;34.984;32.490;2023-02-28T09:16:13;25.87;;;9.73;;
35074;SDS011;21260;34.984;32.490;2023-02-28T09:18:42;20.00;;;8.70;;
35074;SDS011;21260;34.984;32.490;2023-02-28T09:21:13;26.27;;;9.67;;
35074;SDS011;21260;34.984;32.490;2023-02-28T09:23:42;18.23;;;8.83;;
35074;SDS011;21260;34.984;32.490;2023-02-28T09:26:15;25.17;;;8.53;;
35074;SDS011;21260;34.984;32.490;2023-02-28T09:28:45;26.70;;;9.43;;
35074;SDS011;21260;34.984;32.490;2023-02-28T09:31:12;22.17;;;8.60;;
35074;SDS011;21260;34.984;32.490;2023-02-28T09:33:41;21.77;;;9.70;;
35074;SDS011;21260;34.984;32.490;2023-02-28T09:36:08;19.33;;;9.93;;
35074;SDS011;21260;34.984;32.490;2023-02-28T09:38:34;16.30;;;9.27;;
35074;SDS011;21260;34.984;32.490;2023-02-28T09:41:01;25.07;;;9.33;;
35074;SDS011;21260;34.984;32.490;2023-02-28T09:43:38;22.53;;;9.47;;
35074;SDS011;21260;34.984;32.490;2023-02-28T09:49:12;21.08;;;9.90;;
35074;SDS011;21260;34.984;32.490;2023-02-28T09:52:18;19.80;;;9.87;;
35074;SDS011;21260;34.984;32.490;2023-02-28T09:58:11;22.67;;;9.60;;
35074;SDS011;21260;34.984;32.490;2023-02-28T10:01:12;25.00;;;8.17;;
35074;SDS011;21260;34.984;32.490;2023-02-28T10:04:29;29.50;;;9.80;;
35074;SDS011;21260;34.984;32.490;2023-02-28T10:09:53;23.73;;;10.80;;
35074;SDS011;21260;34.984;32.490;2023-02-28T10:12:24;23.77;;;10.20;;
35074;SDS011;21260;34.984;32.490;2023-02-28T10:14:54;22.45;;;9.98;;
35074;SDS011;21260;34.984;32.490;2023-02-28T10:17:25;24.80;;;9.60;;
35074;SDS011;21260;34.984;32.490;2023-02-28T10:20:17;20.57;;;9.43;;
35074;SDS011;21260;34.984;32.490;2023-02-28T10:25:25;32.63;;;9.23;;
35074;SDS011;21260;34.984;32.490;2023-02-28T10:27:57;26.67;;;8.63;;
35074;SDS011;21260;34.984;32.490;2023-02-28T10:30:33;28.08;;;8.95;;
35074;SDS011;21260;34.984;32.490;2023-02-28T10:33:02;20.75;;;7.97;;
35074;SDS011;21260;34.984;32.490;2023-02-28T10:35:28;23.42;;;7.82;;
35074;SDS011;21260;34.984;32.490;2023-02-28T10:37:58;17.52;;;7.93;;
35074;SDS011;21260;34.984;32.490;2023-02-28T10:40:29;17.95;;;7.88;;
35074;SDS011;21260;34.984;32.490;2023-02-28T10:46:43;25.40;;;7.25;;
35074;SDS011;21260;34.984;32.490;2023-02-28T10:49:35;20.67;;;7.78;;
35074;SDS011;21260;34.984;32.490;2023-02-28T10:51:46;26.70;;;8.02;;
35074;SDS011;21260;34.984;32.490;2023-02-28T10:54:23;18.25;;;6.80;;
35074;SDS011;21260;34.984;32.490;2023-02-28T10:59:52;25.10;;;7.90;;
35074;SDS011;21260;34.984;32.490;2023-02-28T11:02:39;19.15;;;7.63;;
35074;SDS011;21260;34.984;32.490;2023-02-28T11:08:03;29.52;;;8.10;;
35074;SDS011;21260;34.984;32.490;2023-02-28T11:10:47;19.73;;;8.15;;
35074;SDS011;21260;34.984;32.490;2023-02-28T11:13:31;25.85;;;7.93;;
35074;SDS011;21260;34.984;32.490;2023-02-28T11:16:06;24.98;;;7.65;;
35074;SDS011;21260;34.984;32.490;2023-02-28T11:21:29;19.77;;;8.50;;
35074;SDS011;21260;34.984;32.490;2023-02-28T11:26:59;27.13;;;12.75;;
35074;SDS011;21260;34.984;32.490;2023-02-28T11:29:31;28.73;;;10.88;;
35074;SDS011;21260;34.984;32.490;2023-02-28T11:32:11;15.18;;;8.75;;
35074;SDS011;21260;34.984;32.490;2023-02-28T11:34:46;19.25;;;7.60;;
35074;SDS011;21260;34.984;32.490;2023-02-28T11:37:47;29.30;;;8.52;;
35074;SDS011;21260;34.984;32.490;2023-02-28T11:40:18;31.20;;;8.27;;
35074;SDS011;21260;34.984;32.490;2023-02-28T11:43:10;19.33;;;8.05;;
35074;SDS011;21260;34.984;32.490;2023-02-28T11:51:34;19.80;;;7.05;;
35074;SDS011;21260;34.984;32.490;2023-02-28T12:03:34;16.58;;;7.65;;
35074;SDS011;21260;34.984;32.490;2023-02-28T12:15:22;15.48;;;7.50;;
35074;SDS011;21260;34.984;32.490;2023-02-28T12:18:03;23.10;;;8.57;;
35074;SDS011;21260;34.984;32.490;2023-02-28T12:26:19;26.83;;;8.95;;
35074;SDS011;21260;34.984;32.490;2023-02-28T12:29:07;26.42;;;9.55;;
35074;SDS011;21260;34.984;32.490;2023-02-28T12:31:53;28.23;;;8.57;;
35074;SDS011;21260;34.984;32.490;2023-02-28T12:34:28;28.50;;;9.02;;
35074;SDS011;21260;34.984;32.490;2023-02-28T12:37:10;23.65;;;7.97;;
35074;SDS011;21260;34.984;32.490;2023-02-28T12:39:55;20.67;;;8.77;;
35074;SDS011;21260;34.984;32.490;2023-02-28T12:42:35;30.85;;;9.95;;
35074;SDS011;21260;34.984;32.490;2023-02-28T12:45:17;32.92;;;9.20;;
35074;SDS011;21260;34.984;32.490;2023-02-28T12:47:49;29.90;;;8.82;;
35074;SDS011;21260;34.984;32.490;2023-02-28T12:50:29;26.02;;;10.02;;
35074;SDS011;21260;34.984;32.490;2023-02-28T12:58:46;24.15;;;9.10;;
35074;SDS011;21260;34.984;32.490;2023-02-28T13:07:37;22.77;;;9.45;;
35074;SDS011;21260;34.984;32.490;2023-02-28T13:10:15;20.58;;;8.82;;
35074;SDS011;21260;34.984;32.490;2023-02-28T13:12:47;33.05;;;8.13;;
35074;SDS011;21260;34.984;32.490;2023-02-28T13:15:18;18.73;;;8.13;;
35074;SDS011;21260;34.984;32.490;2023-02-28T13:17:51;32.97;;;8.15;;
35074;SDS011;21260;34.984;32.490;2023-02-28T13:20:22;21.80;;;8.40;;
35074;SDS011;21260;34.984;32.490;2023-02-28T13:22:54;22.73;;;8.38;;
35074;SDS011;21260;34.984;32.490;2023-02-28T13:27:52;17.08;;;9.60;;
35074;SDS011;21260;34.984;32.490;2023-02-28T13:33:27;22.13;;;9.65;;
35074;SDS011;21260;34.984;32.490;2023-02-28T13:38:52;17.83;;;7.15;;
35074;SDS011;21260;34.984;32.490;2023-02-28T13:44:02;27.85;;;8.73;;
35074;SDS011;21260;34.984;32.490;2023-02-28T13:51:48;27.67;;;11.57;;
35074;SDS011;21260;34.984;32.490;2023-02-28T14:06:13;33.65;;;14.05;;
35074;SDS011;21260;34.984;32.490;2023-02-28T14:20:49;20.58;;;8.55;;
35074;SDS011;21260;34.984;32.490;2023-02-28T14:32:22;20.80;;;11.43;;
35074;SDS011;21260;34.984;32.490;2023-02-28T14:37:56;26.60;;;11.53;;
35074;SDS011;21260;34.984;32.490;2023-02-28T14:51:25;21.03;;;15.03;;
35074;SDS011;21260;34.984;32.490;2023-02-28T14:54:01;28.07;;;14.63;;
35074;SDS011;21260;34.984;32.490;2023-02-28T14:56:36;27.70;;;15.03;;
35074;SDS011;21260;34.984;32.490;2023-02-28T14:59:05;29.23;;;15.80;;
35074;SDS011;21260;34.984;32.490;2023-02-28T15:01:52;24.27;;;15.03;;
35074;SDS011;21260;34.984;32.490;2023-02-28T15:04:52;23.13;;;15.17;;
35074;SDS011;21260;34.984;32.490;2023-02-28T15:22:04;28.43;;;14.57;;
35074;SDS011;21260;34.984;32.490;2023-02-28T15:24:49;24.60;;;13.63;;
35074;SDS011;21260;34.984;32.490;2023-02-28T15:29:53;24.93;;;14.57;;
35074;SDS011;21260;34.984;32.490;2023-02-28T15:34:51;20.27;;;13.80;;
35074;SDS011;21260;34.984;32.490;2023-02-28T15:37:26;24.57;;;15.07;;
35074;SDS011;21260;34.984;32.490;2023-02-28T15:42:58;30.00;;;14.60;;
35074;SDS011;21260;34.984;32.490;2023-02-28T15:45:45;28.63;;;14.20;;
35074;SDS011;21260;34.984;32.490;2023-02-28T15:50:58;38.87;;;14.33;;
35074;SDS011;21260;34.984;32.490;2023-02-28T15:54:19;24.90;;;12.90;;
35074;SDS011;21260;34.984;32.490;2023-02-28T15:56:39;25.13;;;13.63;;
35074;SDS011;21260;34.984;32.490;2023-02-28T15:59:18;30.33;;;13.57;;
35074;SDS011;21260;34.984;32.490;2023-02-28T16:02:53;25.30;;;13.10;;
35074;SDS011;21260;34.984;32.490;2023-02-28T16:07:41;25.73;;;13.50;;
35074;SDS011;21260;34.984;32.490;2023-02-28T16:10:09;23.27;;;13.17;;
35074;SDS011;21260;34.984;32.490;2023-02-28T16:12:39;36.37;;;15.73;;
35074;SDS011;21260;34.984;32.490;2023-02-28T16:15:08;24.27;;;13.40;;
35074;SDS011;21260;34.984;32.490;2023-02-28T16:17:44;29.73;;;13.47;;
35074;SDS011;21260;34.984;32.490;2023-02-28T16:22:43;17.80;;;10.70;;
35074;SDS011;21260;34.984;32.490;2023-02-28T16:25:11;24.83;;;11.73;;
35074;SDS011;21260;34.984;32.490;2023-02-28T16:27:44;26.50;;;12.77;;
35074;SDS011;21260;34.984;32.490;2023-02-28T16:30:17;25.93;;;12.60;;
35074;SDS011;21260;34.984;32.490;2023-02-28T16:32:51;28.33;;;12.17;;
35074;SDS011;21260;34.984;32.490;2023-02-28T16:35:21;20.30;;;12.53;;
35074;SDS011;21260;34.984;32.490;2023-02-28T16:37:47;22.23;;;12.03;;
35074;SDS011;21260;34.984;32.490;2023-02-28T16:40:17;26.57;;;11.83;;
35074;SDS011;21260;34.984;32.490;2023-02-28T16:42:48;18.70;;;11.50;;
35074;SDS011;21260;34.984;32.490;2023-02-28T16:45:24;27.33;;;11.40;;
35074;SDS011;21260;34.984;32.490;2023-02-28T16:47:53;18.07;;;10.43;;
35074;SDS011;21260;34.984;32.490;2023-02-28T16:50:22;19.77;;;10.03;;
35074;SDS011;21260;34.984;32.490;2023-02-28T16:52:52;22.13;;;10.57;;
35074;SDS011;21260;34.984;32.490;2023-02-28T16:55:20;17.37;;;10.63;;
35074;SDS011;21260;34.984;32.490;2023-02-28T16:57:50;22.03;;;10.57;;
35074;SDS011;21260;34.984;32.490;2023-02-28T17:00:19;27.70;;;10.47;;
35074;SDS011;21260;34.984;32.490;2023-02-28T17:02:47;16.80;;;9.37;;
35074;SDS011;21260;34.984;32.490;2023-02-28T17:05:14;20.83;;;9.50;;
35074;SDS011;21260;34.984;32.490;2023-02-28T17:07:42;22.80;;;9.30;;
35074;SDS011;21260;34.984;32.490;2023-02-28T17:10:30;20.17;;;9.20;;
35074;SDS011;21260;34.984;32.490;2023-02-28T17:12:55;15.50;;;8.17;;
35074;SDS011;21260;34.984;32.490;2023-02-28T17:15:21;16.37;;;8.93;;
35074;SDS011;21260;34.984;32.490;2023-02-28T17:17:48;24.07;;;9.20;;
35074;SDS011;21260;34.984;32.490;2023-02-28T17:20:15;18.30;;;9.30;;
35074;SDS011;21260;34.984;32.490;2023-02-28T17:22:49;16.43;;;8.67;;
35074;SDS011;21260;34.984;32.490;2023-02-28T17:25:16;17.03;;;8.73;;
35074;SDS011;21260;34.984;32.490;2023-02-28T17:27:43;20.47;;;8.43;;
35074;SDS011;21260;34.984;32.490;2023-02-28T17:30:16;18.53;;;8.43;;
35074;SDS011;21260;34.984;32.490;2023-02-28T17:32:46;15.97;;;8.40;;
35074;SDS011;21260;34.984;32.490;2023-02-28T17:35:12;18.43;;;9.00;;
35074;SDS011;21260;34.984;32.490;2023-02-28T17:37:42;18.00;;;9.03;;
35074;SDS011;21260;34.984;32.490;2023-02-28T17:40:13;22.27;;;9.20;;
35074;SDS011;21260;34.984;32.490;2023-02-28T17:42:47;19.13;;;8.93;;
35074;SDS011;21260;34.984;32.490;2023-02-28T17:45:14;19.43;;;8.50;;
35074;SDS011;21260;34.984;32.490;2023-02-28T17:47:41;17.37;;;8.20;;
35074;SDS011;21260;34.984;32.490;2023-02-28T17:50:12;21.67;;;9.60;;
35074;SDS011;21260;34.984;32.490;2023-02-28T17:52:44;21.57;;;8.20;;
35074;SDS011;21260;34.984;32.490;2023-02-28T17:55:12;19.87;;;8.60;;
35074;SDS011;21260;34.984;32.490;2023-02-28T17:57:39;21.47;;;9.00;;
35074;SDS011;21260;34.984;32.490;2023-02-28T18:00:07;20.23;;;8.53;;
35074;SDS011;21260;34.984;32.490;2023-02-28T18:02:38;21.87;;;8.60;;
35074;SDS011;21260;34.984;32.490;2023-02-28T18:05:05;20.33;;;8.23;;
35074;SDS011;21260;34.984;32.490;2023-02-28T18:07:32;20.70;;;8.77;;
35074;SDS011;21260;34.984;32.490;2023-02-28T18:09:59;21.07;;;8.17;;